sensor_id;sensor_type;location;lat;lon;timestamp;temperature;humidity
5796;DHT22;2924;51.458;7.046;2022-10-16T00:00:39;13.10;99.90
5796;DHT22;2924;51.458;7.046;2022-10-16T00:03:05;13.10;99.90
5796;DHT22;2924;51.458;7.046;2022-10-16T00:05:31;13.10;99.90
5796;DHT22;2924;51.458;7.046;2022-10-16T00:07:57;13.10;99.90
5796;DHT22;2924;51.458;7.046;2022-10-16T00:10:23;13.10;99.90
5796;DHT22;2924;51.458;7.046;2022-10-16T00:12:49;13.10;99.90
5796;DHT22;2924;51.458;7.046;2022-10-16T00:15:15;13.10;99.90
5796;DHT22;2924;51.458;7.046;2022-10-16T00:17:41;13.10;99.90
5796;DHT22;2924;51.458;7.046;2022-10-16T00:20:07;13.00;99.90
5796;DHT22;2924;51.458;7.046;2022-10-16T00:22:33;13.00;99.90
5796;DHT22;2924;51.458;7.046;2022-10-16T00:24:59;13.00;99.90
5796;DHT22;2924;51.458;7.046;2022-10-16T00:27:24;13.00;99.90
5796;DHT22;2924;51.458;7.046;2022-10-16T00:29:51;13.00;99.90
5796;DHT22;2924;51.458;7.046;2022-10-16T00:32:18;13.00;99.90
5796;DHT22;2924;51.458;7.046;2022-10-16T00:34:44;13.00;99.90
5796;DHT22;2924;51.458;7.046;2022-10-16T00:37:09;13.10;99.90
5796;DHT22;2924;51.458;7.046;2022-10-16T00:39:35;13.10;99.90
5796;DHT22;2924;51.458;7.046;2022-10-16T00:42:01;13.10;99.90
5796;DHT22;2924;51.458;7.046;2022-10-16T00:47:19;13.20;99.90
5796;DHT22;2924;51.458;7.046;2022-10-16T00:49:47;13.10;99.90
5796;DHT22;2924;51.458;7.046;2022-10-16T00:52:14;13.20;99.90
5796;DHT22;2924;51.458;7.046;2022-10-16T00:54:40;13.10;99.90
5796;DHT22;2924;51.458;7.046;2022-10-16T00:57:08;13.20;99.90
5796;DHT22;2924;51.458;7.046;2022-10-16T00:59:37;13.20;99.90
5796;DHT22;2924;51.458;7.046;2022-10-16T01:02:05;13.10;99.90
5796;DHT22;2924;51.458;7.046;2022-10-16T01:04:35;13.10;99.90
5796;DHT22;2924;51.458;7.046;2022-10-16T01:10:28;13.10;99.90
5796;DHT22;2924;51.458;7.046;2022-10-16T01:13:09;13.20;99.90
5796;DHT22;2924;51.458;7.046;2022-10-16T01:15:59;13.10;99.90
5796;DHT22;2924;51.458;7.046;2022-10-16T01:18:57;13.10;99.90
5796;DHT22;2924;51.458;7.046;2022-10-16T01:21:36;13.10;99.90
5796;DHT22;2924;51.458;7.046;2022-10-16T01:29:39;13.10;99.90
5796;DHT22;2924;51.458;7.046;2022-10-16T01:32:33;13.00;99.90
5796;DHT22;2924;51.458;7.046;2022-10-16T01:35:27;13.00;99.90
5796;DHT22;2924;51.458;7.046;2022-10-16T01:38:03;12.90;99.90
5796;DHT22;2924;51.458;7.046;2022-10-16T01:40:32;12.90;99.90
5796;DHT22;2924;51.458;7.046;2022-10-16T01:43:03;12.90;99.90
5796;DHT22;2924;51.458;7.046;2022-10-16T01:45:31;12.80;99.90
5796;DHT22;2924;51.458;7.046;2022-10-16T01:48:00;12.80;99.90
5796;DHT22;2924;51.458;7.046;2022-10-16T01:50:32;12.80;99.90
5796;DHT22;2924;51.458;7.046;2022-10-16T01:52:59;12.80;99.90
5796;DHT22;2924;51.458;7.046;2022-10-16T01:55:33;12.90;99.90
5796;DHT22;2924;51.458;7.046;2022-10-16T01:58:02;13.00;99.90
5796;DHT22;2924;51.458;7.046;2022-10-16T02:00:30;13.00;99.90
5796;DHT22;2924;51.458;7.046;2022-10-16T02:02:57;13.10;99.90
5796;DHT22;2924;51.458;7.046;2022-10-16T02:08:17;13.20;99.90
5796;DHT22;2924;51.458;7.046;2022-10-16T02:10:43;13.20;99.90
5796;DHT22;2924;51.458;7.046;2022-10-16T02:15:46;13.20;99.90
5796;DHT22;2924;51.458;7.046;2022-10-16T02:18:11;13.20;99.90
5796;DHT22;2924;51.458;7.046;2022-10-16T02:20:53;13.20;99.90
5796;DHT22;2924;51.458;7.046;2022-10-16T02:23:58;13.30;99.90
5796;DHT22;2924;51.458;7.046;2022-10-16T02:26:31;13.20;99.90
5796;DHT22;2924;51.458;7.046;2022-10-16T02:29:05;13.30;99.90
5796;DHT22;2924;51.458;7.046;2022-10-16T02:31:35;13.20;99.90
5796;DHT22;2924;51.458;7.046;2022-10-16T02:34:02;13.20;99.90
5796;DHT22;2924;51.458;7.046;2022-10-16T02:36:31;13.10;99.90
5796;DHT22;2924;51.458;7.046;2022-10-16T02:38:58;13.10;99.90
5796;DHT22;2924;51.458;7.046;2022-10-16T02:41:26;13.10;99.90
5796;DHT22;2924;51.458;7.046;2022-10-16T02:43:52;13.10;99.90
5796;DHT22;2924;51.458;7.046;2022-10-16T02:46:18;13.20;99.90
5796;DHT22;2924;51.458;7.046;2022-10-16T02:48:44;13.30;99.90
5796;DHT22;2924;51.458;7.046;2022-10-16T02:51:10;13.30;99.90
5796;DHT22;2924;51.458;7.046;2022-10-16T02:53:35;13.30;99.90
5796;DHT22;2924;51.458;7.046;2022-10-16T02:56:01;13.40;99.90
5796;DHT22;2924;51.458;7.046;2022-10-16T02:58:27;13.30;99.90
5796;DHT22;2924;51.458;7.046;2022-10-16T03:00:52;13.40;99.90
5796;DHT22;2924;51.458;7.046;2022-10-16T03:03:18;13.40;99.90
5796;DHT22;2924;51.458;7.046;2022-10-16T03:05:44;13.40;99.90
5796;DHT22;2924;51.458;7.046;2022-10-16T03:08:11;13.50;99.90
5796;DHT22;2924;51.458;7.046;2022-10-16T03:10:37;13.50;99.90
5796;DHT22;2924;51.458;7.046;2022-10-16T03:13:03;13.50;99.90
5796;DHT22;2924;51.458;7.046;2022-10-16T03:15:29;13.50;99.90
5796;DHT22;2924;51.458;7.046;2022-10-16T03:17:57;13.60;99.90
5796;DHT22;2924;51.458;7.046;2022-10-16T03:20:22;13.60;99.90
5796;DHT22;2924;51.458;7.046;2022-10-16T03:22:48;13.60;99.90
5796;DHT22;2924;51.458;7.046;2022-10-16T03:25:14;13.60;99.90
5796;DHT22;2924;51.458;7.046;2022-10-16T03:27:40;13.50;99.90
5796;DHT22;2924;51.458;7.046;2022-10-16T03:30:06;13.50;99.90
5796;DHT22;2924;51.458;7.046;2022-10-16T03:32:32;13.50;99.90
5796;DHT22;2924;51.458;7.046;2022-10-16T03:34:57;13.50;99.90
5796;DHT22;2924;51.458;7.046;2022-10-16T03:37:23;13.50;99.90
5796;DHT22;2924;51.458;7.046;2022-10-16T03:39:49;13.50;99.90
5796;DHT22;2924;51.458;7.046;2022-10-16T03:42:14;13.40;99.90
5796;DHT22;2924;51.458;7.046;2022-10-16T03:44:40;13.30;99.90
5796;DHT22;2924;51.458;7.046;2022-10-16T03:47:06;13.30;99.90
5796;DHT22;2924;51.458;7.046;2022-10-16T03:49:31;13.40;99.90
5796;DHT22;2924;51.458;7.046;2022-10-16T03:51:57;13.30;99.90
5796;DHT22;2924;51.458;7.046;2022-10-16T03:54:22;13.30;99.90
5796;DHT22;2924;51.458;7.046;2022-10-16T03:56:48;13.30;99.90
5796;DHT22;2924;51.458;7.046;2022-10-16T03:59:14;13.20;99.90
5796;DHT22;2924;51.458;7.046;2022-10-16T04:01:40;13.20;99.90
5796;DHT22;2924;51.458;7.046;2022-10-16T04:04:05;13.20;99.90
5796;DHT22;2924;51.458;7.046;2022-10-16T04:06:31;13.10;99.90
5796;DHT22;2924;51.458;7.046;2022-10-16T04:08:57;13.10;99.90
5796;DHT22;2924;51.458;7.046;2022-10-16T04:11:22;13.00;99.90
5796;DHT22;2924;51.458;7.046;2022-10-16T04:13:48;13.10;99.90
5796;DHT22;2924;51.458;7.046;2022-10-16T04:16:14;13.10;99.90
5796;DHT22;2924;51.458;7.046;2022-10-16T04:18:39;13.00;99.90
5796;DHT22;2924;51.458;7.046;2022-10-16T04:21:06;13.00;99.90
5796;DHT22;2924;51.458;7.046;2022-10-16T04:23:32;13.00;99.90
5796;DHT22;2924;51.458;7.046;2022-10-16T04:25:58;12.90;99.90
5796;DHT22;2924;51.458;7.046;2022-10-16T04:28:24;12.90;99.90
5796;DHT22;2924;51.458;7.046;2022-10-16T04:30:50;13.00;99.90
5796;DHT22;2924;51.458;7.046;2022-10-16T04:33:16;13.10;99.90
5796;DHT22;2924;51.458;7.046;2022-10-16T04:35:41;13.00;99.90
5796;DHT22;2924;51.458;7.046;2022-10-16T04:38:07;13.00;99.90
5796;DHT22;2924;51.458;7.046;2022-10-16T04:40:33;13.00;99.90
5796;DHT22;2924;51.458;7.046;2022-10-16T04:43:05;12.90;99.90
5796;DHT22;2924;51.458;7.046;2022-10-16T04:45:31;12.90;99.90
5796;DHT22;2924;51.458;7.046;2022-10-16T04:47:58;12.80;99.90
5796;DHT22;2924;51.458;7.046;2022-10-16T04:50:24;12.80;99.90
5796;DHT22;2924;51.458;7.046;2022-10-16T04:52:49;12.70;99.90
5796;DHT22;2924;51.458;7.046;2022-10-16T04:55:15;12.80;99.90
5796;DHT22;2924;51.458;7.046;2022-10-16T04:57:41;12.80;99.90
5796;DHT22;2924;51.458;7.046;2022-10-16T05:00:07;12.70;99.90
5796;DHT22;2924;51.458;7.046;2022-10-16T05:02:33;12.60;99.90
5796;DHT22;2924;51.458;7.046;2022-10-16T05:04:59;12.70;99.90
5796;DHT22;2924;51.458;7.046;2022-10-16T05:07:25;12.70;99.90
5796;DHT22;2924;51.458;7.046;2022-10-16T05:09:51;12.80;99.90
5796;DHT22;2924;51.458;7.046;2022-10-16T05:12:16;12.80;99.90
5796;DHT22;2924;51.458;7.046;2022-10-16T05:14:42;12.80;99.90
5796;DHT22;2924;51.458;7.046;2022-10-16T05:17:08;12.80;99.90
5796;DHT22;2924;51.458;7.046;2022-10-16T05:19:33;12.80;99.90
5796;DHT22;2924;51.458;7.046;2022-10-16T05:21:59;12.80;99.90
5796;DHT22;2924;51.458;7.046;2022-10-16T05:24:25;12.80;99.90
5796;DHT22;2924;51.458;7.046;2022-10-16T05:26:51;12.80;99.90
5796;DHT22;2924;51.458;7.046;2022-10-16T05:29:17;12.80;99.90
5796;DHT22;2924;51.458;7.046;2022-10-16T05:31:42;12.90;99.90
5796;DHT22;2924;51.458;7.046;2022-10-16T05:34:08;12.80;99.90
5796;DHT22;2924;51.458;7.046;2022-10-16T05:36:34;12.80;99.90
5796;DHT22;2924;51.458;7.046;2022-10-16T05:38:59;12.80;99.90
5796;DHT22;2924;51.458;7.046;2022-10-16T05:41:25;12.80;99.90
5796;DHT22;2924;51.458;7.046;2022-10-16T05:43:52;12.80;99.90
5796;DHT22;2924;51.458;7.046;2022-10-16T05:46:18;12.80;99.90
5796;DHT22;2924;51.458;7.046;2022-10-16T05:48:43;12.80;99.90
5796;DHT22;2924;51.458;7.046;2022-10-16T05:51:11;12.80;99.90
5796;DHT22;2924;51.458;7.046;2022-10-16T05:53:39;12.80;99.90
5796;DHT22;2924;51.458;7.046;2022-10-16T05:56:06;12.80;99.90
5796;DHT22;2924;51.458;7.046;2022-10-16T05:58:33;12.80;99.90
5796;DHT22;2924;51.458;7.046;2022-10-16T06:01:04;12.70;99.90
5796;DHT22;2924;51.458;7.046;2022-10-16T06:03:30;12.70;99.90
5796;DHT22;2924;51.458;7.046;2022-10-16T06:05:56;12.70;99.90
5796;DHT22;2924;51.458;7.046;2022-10-16T06:08:22;12.70;99.90
5796;DHT22;2924;51.458;7.046;2022-10-16T06:10:49;12.60;99.90
5796;DHT22;2924;51.458;7.046;2022-10-16T06:13:25;12.60;99.90
5796;DHT22;2924;51.458;7.046;2022-10-16T06:15:50;12.60;99.90
5796;DHT22;2924;51.458;7.046;2022-10-16T06:18:16;12.60;99.90
5796;DHT22;2924;51.458;7.046;2022-10-16T06:20:41;12.60;99.90
5796;DHT22;2924;51.458;7.046;2022-10-16T06:23:07;12.50;99.90
5796;DHT22;2924;51.458;7.046;2022-10-16T06:25:33;12.60;99.90
5796;DHT22;2924;51.458;7.046;2022-10-16T06:27:59;12.70;99.90
5796;DHT22;2924;51.458;7.046;2022-10-16T06:30:24;12.70;99.90
5796;DHT22;2924;51.458;7.046;2022-10-16T06:32:50;12.70;99.90
5796;DHT22;2924;51.458;7.046;2022-10-16T06:35:16;12.90;99.90
5796;DHT22;2924;51.458;7.046;2022-10-16T06:37:41;12.90;99.90
5796;DHT22;2924;51.458;7.046;2022-10-16T06:40:07;13.00;99.90
5796;DHT22;2924;51.458;7.046;2022-10-16T06:42:33;13.20;99.90
5796;DHT22;2924;51.458;7.046;2022-10-16T06:44:59;13.50;99.90
5796;DHT22;2924;51.458;7.046;2022-10-16T06:47:24;13.80;99.90
5796;DHT22;2924;51.458;7.046;2022-10-16T06:49:50;13.80;99.90
5796;DHT22;2924;51.458;7.046;2022-10-16T06:52:16;13.80;99.90
5796;DHT22;2924;51.458;7.046;2022-10-16T06:54:41;13.70;99.90
5796;DHT22;2924;51.458;7.046;2022-10-16T06:57:07;13.70;99.90
5796;DHT22;2924;51.458;7.046;2022-10-16T06:59:32;13.60;99.90
5796;DHT22;2924;51.458;7.046;2022-10-16T07:01:58;13.50;99.90
5796;DHT22;2924;51.458;7.046;2022-10-16T07:04:24;13.50;99.90
5796;DHT22;2924;51.458;7.046;2022-10-16T07:06:49;13.50;99.90
5796;DHT22;2924;51.458;7.046;2022-10-16T07:09:17;13.50;99.90
5796;DHT22;2924;51.458;7.046;2022-10-16T07:11:43;13.50;99.90
5796;DHT22;2924;51.458;7.046;2022-10-16T07:14:19;13.80;99.90
5796;DHT22;2924;51.458;7.046;2022-10-16T07:16:46;14.10;99.90
5796;DHT22;2924;51.458;7.046;2022-10-16T07:19:12;14.50;99.90
5796;DHT22;2924;51.458;7.046;2022-10-16T07:21:40;14.60;99.90
5796;DHT22;2924;51.458;7.046;2022-10-16T07:24:11;14.40;99.90
5796;DHT22;2924;51.458;7.046;2022-10-16T07:26:38;14.20;99.90
5796;DHT22;2924;51.458;7.046;2022-10-16T07:29:15;14.00;99.90
5796;DHT22;2924;51.458;7.046;2022-10-16T07:31:42;13.90;99.90
5796;DHT22;2924;51.458;7.046;2022-10-16T07:34:08;13.80;99.90
5796;DHT22;2924;51.458;7.046;2022-10-16T07:36:34;13.70;99.90
5796;DHT22;2924;51.458;7.046;2022-10-16T07:39:00;13.80;99.90
5796;DHT22;2924;51.458;7.046;2022-10-16T07:41:26;14.20;99.90
5796;DHT22;2924;51.458;7.046;2022-10-16T07:43:52;15.00;99.90
5796;DHT22;2924;51.458;7.046;2022-10-16T07:46:19;15.70;99.90
5796;DHT22;2924;51.458;7.046;2022-10-16T07:48:46;16.40;99.90
5796;DHT22;2924;51.458;7.046;2022-10-16T07:51:15;16.90;99.90
5796;DHT22;2924;51.458;7.046;2022-10-16T07:53:41;17.30;99.90
5796;DHT22;2924;51.458;7.046;2022-10-16T07:56:07;17.70;99.90
5796;DHT22;2924;51.458;7.046;2022-10-16T07:58:34;17.90;99.90
5796;DHT22;2924;51.458;7.046;2022-10-16T08:01:06;17.90;99.90
5796;DHT22;2924;51.458;7.046;2022-10-16T08:03:32;17.80;99.90
5796;DHT22;2924;51.458;7.046;2022-10-16T08:05:59;17.80;99.90
5796;DHT22;2924;51.458;7.046;2022-10-16T08:08:25;18.00;99.90
5796;DHT22;2924;51.458;7.046;2022-10-16T08:10:52;18.20;99.90
5796;DHT22;2924;51.458;7.046;2022-10-16T08:13:18;18.40;99.90
5796;DHT22;2924;51.458;7.046;2022-10-16T08:15:44;18.50;99.90
5796;DHT22;2924;51.458;7.046;2022-10-16T08:18:11;18.80;99.90
5796;DHT22;2924;51.458;7.046;2022-10-16T08:20:38;19.00;99.90
5796;DHT22;2924;51.458;7.046;2022-10-16T08:23:04;19.00;99.90
5796;DHT22;2924;51.458;7.046;2022-10-16T08:25:30;19.10;99.90
5796;DHT22;2924;51.458;7.046;2022-10-16T08:27:56;19.20;99.90
5796;DHT22;2924;51.458;7.046;2022-10-16T08:30:23;19.20;99.90
5796;DHT22;2924;51.458;7.046;2022-10-16T08:32:49;19.50;99.90
5796;DHT22;2924;51.458;7.046;2022-10-16T08:35:16;19.60;99.90
5796;DHT22;2924;51.458;7.046;2022-10-16T08:37:42;19.60;99.90
5796;DHT22;2924;51.458;7.046;2022-10-16T08:40:17;19.60;99.90
5796;DHT22;2924;51.458;7.046;2022-10-16T08:45:40;20.30;99.90
5796;DHT22;2924;51.458;7.046;2022-10-16T08:51:03;19.90;99.90
5796;DHT22;2924;51.458;7.046;2022-10-16T08:53:42;20.30;99.90
5796;DHT22;2924;51.458;7.046;2022-10-16T08:56:08;20.60;99.90
5796;DHT22;2924;51.458;7.046;2022-10-16T08:58:34;20.80;99.90
5796;DHT22;2924;51.458;7.046;2022-10-16T09:01:04;20.80;99.90
5796;DHT22;2924;51.458;7.046;2022-10-16T09:09:14;20.60;99.90
5796;DHT22;2924;51.458;7.046;2022-10-16T09:17:00;21.40;99.90
5796;DHT22;2924;51.458;7.046;2022-10-16T09:19:31;21.50;99.90
5796;DHT22;2924;51.458;7.046;2022-10-16T09:22:01;21.50;99.90
5796;DHT22;2924;51.458;7.046;2022-10-16T09:24:27;21.40;99.90
5796;DHT22;2924;51.458;7.046;2022-10-16T09:26:53;21.40;99.90
5796;DHT22;2924;51.458;7.046;2022-10-16T09:29:21;21.50;99.90
5796;DHT22;2924;51.458;7.046;2022-10-16T09:31:47;21.40;99.90
5796;DHT22;2924;51.458;7.046;2022-10-16T09:34:35;21.10;99.90
5796;DHT22;2924;51.458;7.046;2022-10-16T09:37:05;21.10;99.90
5796;DHT22;2924;51.458;7.046;2022-10-16T09:39:54;21.30;99.90
5796;DHT22;2924;51.458;7.046;2022-10-16T09:44:52;21.70;99.90
5796;DHT22;2924;51.458;7.046;2022-10-16T09:47:21;21.70;99.90
5796;DHT22;2924;51.458;7.046;2022-10-16T09:49:55;21.50;99.90
5796;DHT22;2924;51.458;7.046;2022-10-16T09:52:24;21.50;99.90
5796;DHT22;2924;51.458;7.046;2022-10-16T09:54:54;21.50;99.90
5796;DHT22;2924;51.458;7.046;2022-10-16T09:57:20;21.70;99.90
5796;DHT22;2924;51.458;7.046;2022-10-16T10:00:08;21.80;99.90
5796;DHT22;2924;51.458;7.046;2022-10-16T10:02:35;22.10;99.90
5796;DHT22;2924;51.458;7.046;2022-10-16T10:05:05;22.40;99.90
5796;DHT22;2924;51.458;7.046;2022-10-16T10:07:33;22.40;99.90
5796;DHT22;2924;51.458;7.046;2022-10-16T10:10:03;22.50;99.90
5796;DHT22;2924;51.458;7.046;2022-10-16T10:12:31;22.30;99.90
5796;DHT22;2924;51.458;7.046;2022-10-16T10:15:12;22.40;99.90
5796;DHT22;2924;51.458;7.046;2022-10-16T10:17:53;22.70;99.90
5796;DHT22;2924;51.458;7.046;2022-10-16T10:22:51;23.20;99.90
5796;DHT22;2924;51.458;7.046;2022-10-16T10:31:20;24.20;99.90
5796;DHT22;2924;51.458;7.046;2022-10-16T10:36:34;24.20;99.90
5796;DHT22;2924;51.458;7.046;2022-10-16T10:39:25;23.90;99.90
5796;DHT22;2924;51.458;7.046;2022-10-16T10:42:36;23.40;99.90
5796;DHT22;2924;51.458;7.046;2022-10-16T10:50:44;22.00;99.90
5796;DHT22;2924;51.458;7.046;2022-10-16T11:01:54;23.30;99.90
5796;DHT22;2924;51.458;7.046;2022-10-16T11:04:47;23.30;99.90
5796;DHT22;2924;51.458;7.046;2022-10-16T11:07:34;22.90;99.90
5796;DHT22;2924;51.458;7.046;2022-10-16T11:10:12;22.00;99.90
5796;DHT22;2924;51.458;7.046;2022-10-16T11:13:04;21.50;99.90
5796;DHT22;2924;51.458;7.046;2022-10-16T11:15:39;21.10;99.90
5796;DHT22;2924;51.458;7.046;2022-10-16T11:18:15;21.00;99.90
5796;DHT22;2924;51.458;7.046;2022-10-16T11:20:47;21.20;99.90
5796;DHT22;2924;51.458;7.046;2022-10-16T11:23:37;21.40;99.90
5796;DHT22;2924;51.458;7.046;2022-10-16T11:26:14;21.80;99.90
5796;DHT22;2924;51.458;7.046;2022-10-16T11:28:46;22.20;99.90
5796;DHT22;2924;51.458;7.046;2022-10-16T11:31:38;22.60;99.90
5796;DHT22;2924;51.458;7.046;2022-10-16T11:34:20;22.60;99.90
5796;DHT22;2924;51.458;7.046;2022-10-16T11:37:05;22.20;99.90
5796;DHT22;2924;51.458;7.046;2022-10-16T11:39:35;21.60;99.90
5796;DHT22;2924;51.458;7.046;2022-10-16T11:42:10;21.10;99.90
5796;DHT22;2924;51.458;7.046;2022-10-16T11:44:57;21.30;99.90
5796;DHT22;2924;51.458;7.046;2022-10-16T11:47:44;22.00;99.90
5796;DHT22;2924;51.458;7.046;2022-10-16T11:53:14;23.70;99.90
5796;DHT22;2924;51.458;7.046;2022-10-16T11:55:44;24.40;99.20
5796;DHT22;2924;51.458;7.046;2022-10-16T12:03:59;24.10;98.60
5796;DHT22;2924;51.458;7.046;2022-10-16T12:09:27;23.80;99.00
5796;DHT22;2924;51.458;7.046;2022-10-16T12:11:54;24.00;98.30
5796;DHT22;2924;51.458;7.046;2022-10-16T12:14:33;23.70;98.30
5796;DHT22;2924;51.458;7.046;2022-10-16T12:19:45;23.30;98.90
5796;DHT22;2924;51.458;7.046;2022-10-16T12:22:22;23.10;99.10
5796;DHT22;2924;51.458;7.046;2022-10-16T12:24:51;23.20;99.40
5796;DHT22;2924;51.458;7.046;2022-10-16T12:27:30;23.20;99.60
5796;DHT22;2924;51.458;7.046;2022-10-16T12:30:04;23.10;99.60
5796;DHT22;2924;51.458;7.046;2022-10-16T12:32:36;22.90;99.50
5796;DHT22;2924;51.458;7.046;2022-10-16T12:35:04;22.70;99.90
5796;DHT22;2924;51.458;7.046;2022-10-16T12:37:36;22.70;99.90
5796;DHT22;2924;51.458;7.046;2022-10-16T12:42:47;22.10;99.90
5796;DHT22;2924;51.458;7.046;2022-10-16T12:45:30;22.00;99.90
5796;DHT22;2924;51.458;7.046;2022-10-16T12:47:57;22.20;99.90
5796;DHT22;2924;51.458;7.046;2022-10-16T12:50:33;22.20;99.90
5796;DHT22;2924;51.458;7.046;2022-10-16T12:53:00;22.10;99.90
5796;DHT22;2924;51.458;7.046;2022-10-16T12:55:27;22.10;99.90
5796;DHT22;2924;51.458;7.046;2022-10-16T13:07:17;22.30;99.90
5796;DHT22;2924;51.458;7.046;2022-10-16T13:17:55;22.20;99.90
5796;DHT22;2924;51.458;7.046;2022-10-16T13:29:14;22.20;99.90
5796;DHT22;2924;51.458;7.046;2022-10-16T13:31:40;22.20;99.90
5796;DHT22;2924;51.458;7.046;2022-10-16T13:34:15;21.80;99.90
5796;DHT22;2924;51.458;7.046;2022-10-16T13:36:48;21.50;99.90
5796;DHT22;2924;51.458;7.046;2022-10-16T13:39:28;21.30;99.90
5796;DHT22;2924;51.458;7.046;2022-10-16T13:42:04;21.10;99.90
5796;DHT22;2924;51.458;7.046;2022-10-16T13:44:43;20.90;99.90
5796;DHT22;2924;51.458;7.046;2022-10-16T13:47:23;20.60;99.90
5796;DHT22;2924;51.458;7.046;2022-10-16T13:50:09;20.50;99.90
5796;DHT22;2924;51.458;7.046;2022-10-16T13:52:36;20.50;99.90
5796;DHT22;2924;51.458;7.046;2022-10-16T13:55:09;20.40;99.90
5796;DHT22;2924;51.458;7.046;2022-10-16T13:57:35;20.40;99.90
5796;DHT22;2924;51.458;7.046;2022-10-16T14:00:01;20.60;99.90
5796;DHT22;2924;51.458;7.046;2022-10-16T14:02:33;20.60;99.90
5796;DHT22;2924;51.458;7.046;2022-10-16T14:05:02;20.50;99.90
5796;DHT22;2924;51.458;7.046;2022-10-16T14:07:30;20.50;99.90
5796;DHT22;2924;51.458;7.046;2022-10-16T14:10:07;20.70;99.90
5796;DHT22;2924;51.458;7.046;2022-10-16T14:12:43;20.80;99.90
5796;DHT22;2924;51.458;7.046;2022-10-16T14:15:19;21.00;99.90
5796;DHT22;2924;51.458;7.046;2022-10-16T14:17:48;21.10;99.90
5796;DHT22;2924;51.458;7.046;2022-10-16T14:20:15;21.30;99.90
5796;DHT22;2924;51.458;7.046;2022-10-16T14:22:42;21.40;99.90
5796;DHT22;2924;51.458;7.046;2022-10-16T14:25:21;21.40;99.90
5796;DHT22;2924;51.458;7.046;2022-10-16T14:28:03;21.20;99.90
5796;DHT22;2924;51.458;7.046;2022-10-16T14:30:31;20.80;99.90
5796;DHT22;2924;51.458;7.046;2022-10-16T14:33:03;20.60;99.90
5796;DHT22;2924;51.458;7.046;2022-10-16T14:35:35;20.40;99.90
5796;DHT22;2924;51.458;7.046;2022-10-16T14:38:02;20.20;99.90
5796;DHT22;2924;51.458;7.046;2022-10-16T14:40:34;20.10;99.90
5796;DHT22;2924;51.458;7.046;2022-10-16T14:43:01;20.00;99.90
5796;DHT22;2924;51.458;7.046;2022-10-16T14:45:29;19.90;99.90
5796;DHT22;2924;51.458;7.046;2022-10-16T14:48:04;19.90;99.90
5796;DHT22;2924;51.458;7.046;2022-10-16T14:50:31;20.00;99.90
5796;DHT22;2924;51.458;7.046;2022-10-16T14:52:58;20.20;99.90
5796;DHT22;2924;51.458;7.046;2022-10-16T14:55:24;20.20;99.90
5796;DHT22;2924;51.458;7.046;2022-10-16T14:57:50;20.00;99.90
5796;DHT22;2924;51.458;7.046;2022-10-16T15:00:22;19.80;99.90
5796;DHT22;2924;51.458;7.046;2022-10-16T15:02:49;19.70;99.90
5796;DHT22;2924;51.458;7.046;2022-10-16T15:05:23;19.50;99.90
5796;DHT22;2924;51.458;7.046;2022-10-16T15:07:50;19.40;99.90
5796;DHT22;2924;51.458;7.046;2022-10-16T15:10:17;19.40;99.90
5796;DHT22;2924;51.458;7.046;2022-10-16T15:12:43;19.30;99.90
5796;DHT22;2924;51.458;7.046;2022-10-16T15:17:56;19.10;99.90
5796;DHT22;2924;51.458;7.046;2022-10-16T15:20:29;19.00;99.90
5796;DHT22;2924;51.458;7.046;2022-10-16T15:22:56;18.90;99.90
5796;DHT22;2924;51.458;7.046;2022-10-16T15:25:37;18.80;99.90
5796;DHT22;2924;51.458;7.046;2022-10-16T15:28:04;18.80;99.90
5796;DHT22;2924;51.458;7.046;2022-10-16T15:30:31;18.80;99.90
5796;DHT22;2924;51.458;7.046;2022-10-16T15:32:57;18.70;99.90
5796;DHT22;2924;51.458;7.046;2022-10-16T15:35:22;18.60;99.90
5796;DHT22;2924;51.458;7.046;2022-10-16T15:37:48;18.50;99.90
5796;DHT22;2924;51.458;7.046;2022-10-16T15:40:15;18.50;99.90
5796;DHT22;2924;51.458;7.046;2022-10-16T15:42:41;18.40;99.90
5796;DHT22;2924;51.458;7.046;2022-10-16T15:45:09;18.30;99.90
5796;DHT22;2924;51.458;7.046;2022-10-16T15:47:34;18.10;99.90
5796;DHT22;2924;51.458;7.046;2022-10-16T15:50:00;18.10;99.90
5796;DHT22;2924;51.458;7.046;2022-10-16T15:52:26;18.10;99.90
5796;DHT22;2924;51.458;7.046;2022-10-16T15:54:52;18.00;99.90
5796;DHT22;2924;51.458;7.046;2022-10-16T15:57:17;17.90;99.90
5796;DHT22;2924;51.458;7.046;2022-10-16T15:59:43;17.90;99.90
5796;DHT22;2924;51.458;7.046;2022-10-16T16:02:09;17.80;99.90
5796;DHT22;2924;51.458;7.046;2022-10-16T16:04:35;17.80;99.90
5796;DHT22;2924;51.458;7.046;2022-10-16T16:07:01;17.80;99.90
5796;DHT22;2924;51.458;7.046;2022-10-16T16:09:29;17.70;99.90
5796;DHT22;2924;51.458;7.046;2022-10-16T16:11:55;17.60;99.90
5796;DHT22;2924;51.458;7.046;2022-10-16T16:14:20;17.50;99.90
5796;DHT22;2924;51.458;7.046;2022-10-16T16:16:46;17.40;99.90
5796;DHT22;2924;51.458;7.046;2022-10-16T16:19:12;17.30;99.90
5796;DHT22;2924;51.458;7.046;2022-10-16T16:21:38;17.30;99.90
5796;DHT22;2924;51.458;7.046;2022-10-16T16:24:04;17.20;99.90
5796;DHT22;2924;51.458;7.046;2022-10-16T16:26:34;17.20;99.90
5796;DHT22;2924;51.458;7.046;2022-10-16T16:29:03;17.10;99.90
5796;DHT22;2924;51.458;7.046;2022-10-16T16:31:30;17.10;99.90
5796;DHT22;2924;51.458;7.046;2022-10-16T16:33:57;17.00;99.90
5796;DHT22;2924;51.458;7.046;2022-10-16T16:36:24;17.00;99.90
5796;DHT22;2924;51.458;7.046;2022-10-16T16:38:50;17.00;99.90
5796;DHT22;2924;51.458;7.046;2022-10-16T16:41:18;16.90;99.90
5796;DHT22;2924;51.458;7.046;2022-10-16T16:43:45;16.90;99.90
5796;DHT22;2924;51.458;7.046;2022-10-16T16:46:11;16.70;99.90
5796;DHT22;2924;51.458;7.046;2022-10-16T16:48:38;16.60;99.90
5796;DHT22;2924;51.458;7.046;2022-10-16T16:51:08;16.50;99.90
5796;DHT22;2924;51.458;7.046;2022-10-16T16:53:35;16.50;99.90
5796;DHT22;2924;51.458;7.046;2022-10-16T16:56:05;16.40;99.90
5796;DHT22;2924;51.458;7.046;2022-10-16T16:58:32;16.40;99.90
5796;DHT22;2924;51.458;7.046;2022-10-16T17:00:58;16.40;99.90
5796;DHT22;2924;51.458;7.046;2022-10-16T17:03:31;16.40;99.90
5796;DHT22;2924;51.458;7.046;2022-10-16T17:05:58;16.40;99.90
5796;DHT22;2924;51.458;7.046;2022-10-16T17:08:24;16.40;99.90
5796;DHT22;2924;51.458;7.046;2022-10-16T17:10:50;16.40;99.90
5796;DHT22;2924;51.458;7.046;2022-10-16T17:13:19;16.40;99.90
5796;DHT22;2924;51.458;7.046;2022-10-16T17:15:49;16.40;99.90
5796;DHT22;2924;51.458;7.046;2022-10-16T17:18:15;16.40;99.90
5796;DHT22;2924;51.458;7.046;2022-10-16T17:20:42;16.30;99.90
5796;DHT22;2924;51.458;7.046;2022-10-16T17:23:09;16.30;99.90
5796;DHT22;2924;51.458;7.046;2022-10-16T17:25:37;16.30;99.90
5796;DHT22;2924;51.458;7.046;2022-10-16T17:28:03;16.20;99.90
5796;DHT22;2924;51.458;7.046;2022-10-16T17:30:28;16.20;99.90
5796;DHT22;2924;51.458;7.046;2022-10-16T17:32:54;16.10;99.90
5796;DHT22;2924;51.458;7.046;2022-10-16T17:35:20;16.10;99.90
5796;DHT22;2924;51.458;7.046;2022-10-16T17:37:45;16.10;99.90
5796;DHT22;2924;51.458;7.046;2022-10-16T17:40:11;16.10;99.90
5796;DHT22;2924;51.458;7.046;2022-10-16T17:42:37;16.20;99.90
5796;DHT22;2924;51.458;7.046;2022-10-16T17:45:03;16.30;99.90
5796;DHT22;2924;51.458;7.046;2022-10-16T17:47:28;16.40;99.90
5796;DHT22;2924;51.458;7.046;2022-10-16T17:49:54;16.30;99.90
5796;DHT22;2924;51.458;7.046;2022-10-16T17:52:21;16.30;99.90
5796;DHT22;2924;51.458;7.046;2022-10-16T17:54:49;16.40;99.90
5796;DHT22;2924;51.458;7.046;2022-10-16T17:57:16;16.30;99.90
5796;DHT22;2924;51.458;7.046;2022-10-16T17:59:42;16.30;99.90
5796;DHT22;2924;51.458;7.046;2022-10-16T18:02:11;16.30;99.90